Blooming Grove, Ohio
Current Conditions -  °F | °C
As of 7:53 PM on Friday 24 Oct 2014 (Local Time) from KMNN Reporting Station
Broken Clouds Broken Clouds  
Wind Chill: 52°   Ceiling: 4700
Heat Index: 52°   Visibility: 9mi
Dew Point: 40°   Wind: 3mph
Humidity: 63%   Direction: 210°SSW
Pressure: 30.02"   Gusts: NA
Location:  40.712°N, 82.796°W
Report Text: KMNN 242353Z AUTO 21003KT 9SM BKN047 11/04 A3002 RMK AO2 SLP172 T01110044 10178 20111 53003 TSNO
Loading
Personal Weather Stations






























Interactive Weather Map
Tropical Storm Tracking
New forecast layout! Learn more

10-Day Weather Forecast

Advertisements
Track Severe Weather on mobile